Time;durP1;ratioP1;P1;durP2;ratioP2;P2;SDS_P1;SDS_P2;PMS_P1;PMS_P2;Temp;Humidity;BMP_temperature;BMP_pressure;BME280_temperature;BME280_humidity;BME280_pressure;Samples;Min_cycle;Max_cycle;Signal;HPM_P1;HPM_P2
2023/01/29 00:01:15;;;;;;;5.35;2.90;;;;;;;-144.47;76.40;53211.63;4955590;28;20209;-68
2023/01/29 00:03:41;;;;;;;6.13;2.95;;;;;;;-144.47;76.70;53193.75;4956694;28;20030;-68
2023/01/29 00:08:36;;;;;;;6.93;2.83;;;;;;;-144.47;77.06;53213.63;5015706;28;20061;-68
2023/01/29 00:11:06;;;;;;;14.65;3.00;;;;;;;-144.47;77.14;53221.56;5016705;28;20612;-67
2023/01/29 00:13:35;;;;;;;9.48;2.75;;;;;;;-144.47;77.48;53229.50;5019680;28;20048;-66
2023/01/29 00:16:01;;;;;;;4.63;2.75;;;;;;;-144.47;77.75;53233.47;5016804;28;20463;-66
2023/01/29 00:18:28;;;;;;;5.95;2.72;;;;;;;-144.47;77.69;53241.44;5016778;28;20167;-67
2023/01/29 00:20:53;;;;;;;8.63;3.15;;;;;;;-144.47;77.73;53217.59;5013429;28;20923;-65
2023/01/29 00:23:19;;;;;;;5.70;2.55;;;;;;;-144.47;78.14;53225.53;5018081;28;20030;-65
2023/01/29 00:25:45;;;;;;;5.25;2.58;;;;;;;-144.47;78.19;53241.44;5018524;28;20104;-66
2023/01/29 00:28:11;;;;;;;8.27;2.75;;;;;;;-144.47;78.42;53199.72;5018376;28;20065;-67
2023/01/29 00:30:37;;;;;;;8.45;2.85;;;;;;;-144.47;78.53;53227.53;5015749;28;20025;-68
2023/01/29 00:33:03;;;;;;;6.95;3.25;;;;;;;-144.47;78.56;53223.56;5021149;28;20018;-66
2023/01/29 00:35:29;;;;;;;9.15;3.13;;;;;;;-144.47;78.69;53197.72;5024504;28;20763;-66
2023/01/29 00:37:55;;;;;;;8.63;4.22;;;;;;;-144.47;78.99;53249.38;5027995;28;20078;-68
2023/01/29 00:40:21;;;;;;;6.28;2.90;;;;;;;-144.47;79.09;53215.59;5028034;28;20553;-69
2023/01/29 00:45:31;;;;;;;8.80;3.25;;;;;;;-144.47;79.39;53221.56;5026688;28;20083;-67
2023/01/29 00:47:57;;;;;;;7.15;3.75;;;;;;;-144.47;79.26;53251.34;5029017;28;20025;-68
2023/01/29 00:50:22;;;;;;;7.43;3.20;;;;;;;-144.47;79.58;53243.41;5028631;28;20025;-65
2023/01/29 00:52:50;;;;;;;6.13;2.95;;;;;;;-144.47;79.85;53215.59;5030403;28;20128;-69
2023/01/29 00:55:16;;;;;;;10.23;3.30;;;;;;;-144.47;80.09;53219.56;5027599;28;20037;-69
2023/01/29 00:57:41;;;;;;;10.32;3.50;;;;;;;-144.47;80.18;53233.47;5028982;28;20033;-65
2023/01/29 01:00:11;;;;;;;5.90;3.30;;;;;;;-144.47;80.23;53251.34;5029915;28;20040;-68
2023/01/29 01:05:20;;;;;;;7.57;3.33;;;;;;;-144.47;80.43;53257.31;5027380;28;20048;-68
2023/01/29 01:07:51;;;;;;;6.05;3.30;;;;;;;-144.47;80.78;53235.47;5028475;28;20029;-67
2023/01/29 01:10:19;;;;;;;5.25;2.92;;;;;;;-144.47;80.87;53251.34;5029498;28;20112;-68
2023/01/29 01:12:45;;;;;;;5.93;3.20;;;;;;;-144.47;80.93;53237.44;5029214;28;20040;-64
2023/01/29 01:15:11;;;;;;;8.65;3.20;;;;;;;-144.47;80.88;53263.28;5028718;28;20030;-69
2023/01/29 01:17:36;;;;;;;6.28;3.30;;;;;;;-144.47;81.03;53221.56;5028613;28;20037;-70
2023/01/29 01:20:02;;;;;;;8.65;3.67;;;;;;;-144.47;80.73;53221.56;5029343;28;20033;-67
2023/01/29 01:22:28;;;;;;;6.93;2.95;;;;;;;-144.47;80.60;53215.59;5029362;28;20021;-66
2023/01/29 01:24:53;;;;;;;7.53;3.70;;;;;;;-144.47;80.85;53229.50;5029298;28;20056;-67
2023/01/29 01:27:18;;;;;;;7.68;4.15;;;;;;;-144.47;80.99;53241.44;5029044;28;20041;-69
2023/01/29 01:29:45;;;;;;;7.53;3.65;;;;;;;-144.47;81.18;53237.44;5024471;28;20060;-67
2023/01/29 01:32:11;;;;;;;13.63;3.78;;;;;;;-144.47;81.87;53229.50;5028752;28;20022;-65
2023/01/29 01:34:36;;;;;;;14.90;4.07;;;;;;;-144.47;82.10;53237.44;5029070;28;20018;-65
2023/01/29 01:37:02;;;;;;;4.82;3.20;;;;;;;-144.47;82.60;53235.47;5028503;28;20514;-67
2023/01/29 01:39:28;;;;;;;13.60;4.30;;;;;;;-144.47;82.82;53237.44;5028868;28;20086;-67
2023/01/29 01:41:53;;;;;;;8.60;4.07;;;;;;;-144.47;83.07;53213.63;5028502;28;20109;-68
2023/01/29 01:44:50;;;;;;;6.88;3.40;;;;;;;-144.47;83.29;53221.56;5028746;28;20034;-68
2023/01/29 01:47:19;;;;;;;7.22;3.22;;;;;;;-144.47;83.39;53221.56;5028761;28;20033;-68
2023/01/29 01:49:46;;;;;;;7.75;3.53;;;;;;;-144.47;83.48;53253.34;5028682;28;20021;-68
2023/01/29 01:52:15;;;;;;;9.20;4.28;;;;;;;-144.47;83.64;53251.34;5028521;28;20044;-69
2023/01/29 01:54:40;;;;;;;;;;;;;;;-144.47;83.54;53257.31;5026436;28;20423;-64
2023/01/29 01:57:14;;;;;;;10.93;3.50;;;;;;;-144.47;83.18;53263.28;5032393;28;19916;-68
2023/01/29 01:59:45;;;;;;;7.82;3.60;;;;;;;-144.47;83.05;53265.25;5032753;28;20414;-64
2023/01/29 02:10:30;;;;;;;6.72;3.95;;;;;;;-144.47;83.06;53251.34;5030762;28;20039;-68
2023/01/29 02:12:56;;;;;;;9.20;4.07;;;;;;;-144.47;83.24;53279.16;5031151;28;20033;-65
2023/01/29 02:15:21;;;;;;;10.18;4.47;;;;;;;-144.47;83.29;53241.44;5032513;28;20298;-64
2023/01/29 02:17:47;;;;;;;6.82;3.58;;;;;;;-144.47;83.38;53221.56;5032283;28;20025;-67
2023/01/29 02:20:41;;;;;;;13.48;4.82;;;;;;;-144.47;83.17;53239.44;5031727;28;20026;-66
2023/01/29 02:23:09;;;;;;;7.75;4.10;;;;;;;-144.47;83.73;53259.31;5030548;28;20344;-67
2023/01/29 02:26:00;;;;;;;9.97;4.80;;;;;;;-144.47;83.73;53247.38;5022364;28;20029;-67
2023/01/29 02:28:28;;;;;;;10.50;4.80;;;;;;;-144.47;83.61;53249.38;5032264;28;20316;-68
2023/01/29 02:31:15;;;;;;;9.15;4.57;;;;;;;-144.47;83.37;53251.34;5030864;28;20032;-67
2023/01/29 02:33:59;;;;;;;12.82;4.28;;;;;;;-144.47;83.33;53221.56;5027975;28;20104;-67
2023/01/29 02:36:30;;;;;;;10.50;4.80;;;;;;;-144.47;83.38;53243.41;5030745;28;20136;-66
2023/01/29 02:39:07;;;;;;;8.95;4.18;;;;;;;-144.47;83.56;53253.34;5031747;28;20646;-68
2023/01/29 02:41:53;;;;;;;14.18;4.88;;;;;;;-144.47;83.66;53267.25;5020085;28;20029;-68
2023/01/29 02:44:42;;;;;;;11.70;4.80;;;;;;;-144.47;84.10;53275.19;5031129;28;20029;-65
2023/01/29 02:47:13;;;;;;;13.20;5.78;;;;;;;-144.47;84.31;53273.22;5031886;28;20029;-69
2023/01/29 02:49:48;;;;;;;9.90;4.22;;;;;;;-144.47;84.25;53271.22;5031582;28;20041;-68
2023/01/29 02:52:32;;;;;;;9.93;4.40;;;;;;;-144.47;84.12;53273.22;5027143;28;20051;-66
2023/01/29 02:55:16;;;;;;;8.40;4.57;;;;;;;-144.47;83.92;53247.38;5025092;28;20025;-67
2023/01/29 02:57:45;;;;;;;9.95;4.80;;;;;;;-144.47;84.04;53241.44;5026544;28;20049;-67
2023/01/29 03:00:17;;;;;;;14.65;4.40;;;;;;;-144.47;84.20;53259.31;5031993;28;20021;-67
2023/01/29 03:03:02;;;;;;;15.30;4.85;;;;;;;-144.47;84.56;53265.25;5031930;28;20029;-67
2023/01/29 03:05:35;;;;;;;19.00;5.82;;;;;;;-144.47;84.55;53245.41;5031710;28;20163;-68
2023/01/29 03:08:06;;;;;;;14.63;5.05;;;;;;;-144.47;84.91;53253.34;5029781;28;20184;-66
2023/01/29 03:10:43;;;;;;;8.57;3.67;;;;;;;-144.47;85.07;53267.25;5031049;28;20025;-65
2023/01/29 03:13:20;;;;;;;11.75;5.28;;;;;;;-144.47;85.39;53281.16;5031347;28;20021;-68
2023/01/29 03:15:53;;;;;;;9.75;4.57;;;;;;;-144.47;85.14;53261.28;5031940;28;20108;-68
2023/01/29 03:18:26;;;;;;;11.45;6.05;;;;;;;-144.47;85.70;53243.41;5030118;28;20029;-67
2023/01/29 03:20:59;;;;;;;12.70;4.93;;;;;;;-144.47;86.06;53269.22;5030642;28;20487;-68
2023/01/29 03:32:07;;;;;;;18.92;4.90;;;;;;;-144.47;87.24;53297.03;5026982;28;20411;-66
2023/01/29 03:34:45;;;;;;;13.88;5.30;;;;;;;-144.47;87.71;53253.34;5031628;28;20025;-67
2023/01/29 03:37:22;;;;;;;11.70;4.90;;;;;;;-144.47;87.68;53279.16;5021004;28;20034;-64
2023/01/29 03:39:48;;;;;;;10.80;4.85;;;;;;;-144.47;87.94;53267.25;5030726;28;20028;-67
2023/01/29 03:42:37;;;;;;;11.43;5.63;;;;;;;-144.47;88.33;53251.34;5031913;28;20025;-67
2023/01/29 03:45:04;;;;;;;11.45;5.32;;;;;;;-144.47;88.14;53263.28;5031730;28;20029;-65
2023/01/29 03:47:39;;;;;;;13.23;5.20;;;;;;;-144.47;88.08;53267.25;5031167;28;20108;-68
2023/01/29 03:50:13;;;;;;;15.18;5.43;;;;;;;-144.47;88.37;53283.13;5031263;28;20665;-67
2023/01/29 03:53:06;;;;;;;10.65;5.60;;;;;;;-144.47;88.67;53283.13;5030357;28;20469;-66
2023/01/29 03:55:37;;;;;;;16.20;5.32;;;;;;;-144.47;88.43;53265.25;5030460;28;20029;-66
2023/01/29 03:58:36;;;;;;;11.48;5.32;;;;;;;-144.47;88.16;53257.31;5030887;28;20052;-67
2023/01/29 04:01:10;;;;;;;12.57;5.70;;;;;;;-144.47;88.19;53249.38;5030840;28;20021;-68
2023/01/29 04:03:40;;;;;;;14.20;5.30;;;;;;;-144.47;88.29;53269.22;5030451;28;20044;-69
2023/01/29 04:06:17;;;;;;;10.82;6.30;;;;;;;-144.47;88.29;53269.22;5032488;28;20079;-66
2023/01/29 04:08:53;;;;;;;15.27;5.97;;;;;;;-144.47;88.74;53265.25;5031623;28;20510;-67
2023/01/29 04:11:21;;;;;;;12.88;4.80;;;;;;;-144.47;88.21;53285.13;5030669;28;20117;-67
2023/01/29 04:13:47;;;;;;;12.88;5.85;;;;;;;-144.47;88.29;53273.22;5013435;28;20029;-68
2023/01/29 04:16:18;;;;;;;13.45;5.68;;;;;;;-144.47;88.18;53267.25;5023991;28;20040;-65
2023/01/29 04:18:45;;;;;;;17.55;6.22;;;;;;;-144.47;87.97;53271.22;5029779;28;20064;-66
2023/01/29 04:21:11;;;;;;;10.82;5.55;;;;;;;-144.47;87.98;53279.16;5031002;28;20490;-67
2023/01/29 04:23:37;;;;;;;18.00;6.82;;;;;;;-144.47;88.04;53253.34;5030907;28;20052;-68
2023/01/29 04:26:49;;;;;;;12.52;5.93;;;;;;;-144.47;88.19;53257.31;5030637;28;20080;-67
2023/01/29 04:29:28;;;;;;;10.40;5.13;;;;;;;-144.47;88.11;53249.38;5030785;28;20084;-66
2023/01/29 04:31:56;;;;;;;8.35;5.07;;;;;;;-144.47;88.26;53267.25;5027782;28;20075;-67
2023/01/29 04:34:29;;;;;;;12.43;5.65;;;;;;;-144.47;88.21;53285.13;5030489;28;20053;-65
2023/01/29 04:37:11;;;;;;;16.63;5.78;;;;;;;-144.47;88.07;53249.38;5029547;28;20037;-69
2023/01/29 04:39:48;;;;;;;9.13;4.68;;;;;;;-144.47;87.57;53275.19;5029141;28;20041;-69
2023/01/29 04:42:30;;;;;;;11.65;5.63;;;;;;;-144.47;87.88;53287.13;5029972;28;20391;-68
2023/01/29 04:45:11;;;;;;;11.05;5.60;;;;;;;-144.47;87.69;53267.25;5030437;28;20029;-68
2023/01/29 04:47:45;;;;;;;10.38;5.03;;;;;;;-144.47;87.39;53279.16;5030392;28;20044;-68
2023/01/29 04:50:27;;;;;;;16.92;6.38;;;;;;;-144.47;87.34;53275.19;5030668;28;20029;-67
2023/01/29 04:53:11;;;;;;;15.57;5.78;;;;;;;-144.47;87.00;53269.22;5029310;28;20049;-67
2023/01/29 04:55:46;;;;;;;11.25;5.45;;;;;;;-144.47;86.93;53233.47;5028457;28;20040;-64
2023/01/29 04:58:21;;;;;;;11.82;6.25;;;;;;;-144.47;86.83;53287.13;5020552;28;20528;-67
2023/01/29 05:00:52;;;;;;;12.40;5.47;;;;;;;-144.47;86.60;53251.34;5029638;28;20031;-65
2023/01/29 05:03:19;;;;;;;12.20;5.65;;;;;;;-144.47;86.37;53259.31;5029112;28;20029;-63
2023/01/29 05:05:47;;;;;;;10.00;4.80;;;;;;;-144.47;86.44;53263.28;5028822;28;20430;-68
2023/01/29 05:08:16;;;;;;;15.80;5.20;;;;;;;-144.47;86.18;53283.13;5028797;28;20415;-67
2023/01/29 05:10:43;;;;;;;12.30;5.47;;;;;;;-144.47;85.83;53281.16;5029277;28;20040;-67
2023/01/29 05:13:12;;;;;;;11.80;5.32;;;;;;;-144.47;85.80;53275.19;5028939;28;20025;-63
2023/01/29 05:15:49;;;;;;;14.00;6.50;;;;;;;-144.47;85.55;53277.19;5028165;28;20033;-67
2023/01/29 05:18:15;;;;;;;24.40;5.50;;;;;;;-144.47;85.05;53279.16;5028926;28;20439;-67
2023/01/29 05:20:42;;;;;;;10.93;5.55;;;;;;;-144.47;84.82;53245.41;5028686;28;20499;-65
2023/01/29 05:23:19;;;;;;;12.55;6.20;;;;;;;-144.47;84.38;53231.50;5028584;28;20422;-67
2023/01/29 05:25:46;;;;;;;10.57;4.65;;;;;;;-144.47;84.33;53229.50;5029405;28;20033;-68
2023/01/29 05:28:17;;;;;;;12.80;6.10;;;;;;;-144.47;84.23;53247.38;5029308;28;20032;-66
2023/01/29 05:30:45;;;;;;;14.55;6.10;;;;;;;-144.47;83.94;53277.19;5026352;28;20021;-63
2023/01/29 05:33:14;;;;;;;11.60;5.47;;;;;;;-144.47;83.92;53237.44;5028695;28;20025;-66
2023/01/29 05:35:40;;;;;;;10.35;5.00;;;;;;;-144.47;83.82;53243.41;5029249;28;20042;-66
2023/01/29 05:38:05;;;;;;;9.23;4.35;;;;;;;-144.47;84.07;53225.53;5029736;28;20529;-66
2023/01/29 05:40:31;;;;;;;16.20;5.82;;;;;;;-144.47;84.12;53285.13;5029838;28;20030;-67
2023/01/29 05:42:57;;;;;;;12.85;5.40;;;;;;;-144.47;83.75;53259.31;5029460;28;20383;-67
2023/01/29 05:45:22;;;;;;;14.57;6.43;;;;;;;-144.47;83.69;53221.56;5029369;28;20079;-66
2023/01/29 05:47:47;;;;;;;12.75;5.45;;;;;;;-144.47;83.89;53235.47;5027815;28;20036;-67
2023/01/29 05:50:14;;;;;;;13.73;5.55;;;;;;;-144.47;84.06;53249.38;5029446;28;20033;-63
2023/01/29 05:52:40;;;;;;;11.57;6.10;;;;;;;-144.47;83.96;53245.41;5027794;28;20060;-67
2023/01/29 05:55:06;;;;;;;12.10;5.57;;;;;;;-144.47;84.05;53239.44;5021734;28;20047;-64
2023/01/29 05:57:32;;;;;;;13.60;4.65;;;;;;;-144.47;83.96;53177.88;5029041;28;20037;-67
2023/01/29 05:59:57;;;;;;;12.48;5.53;;;;;;;-144.47;84.09;53261.28;5029283;28;20079;-68
2023/01/29 06:02:22;;;;;;;14.00;5.60;;;;;;;-144.47;84.13;53227.53;5029349;28;20025;-66
2023/01/29 06:04:52;;;;;;;11.65;5.93;;;;;;;-144.47;84.03;53225.53;5028887;28;20025;-68
2023/01/29 06:07:18;;;;;;;11.88;6.45;;;;;;;-144.47;83.81;53221.56;5040949;22;21270;-90
2023/01/29 06:09:43;;;;;;;10.55;5.35;;;;;;;-144.47;83.71;53223.56;5032168;28;20034;-90
2023/01/29 06:12:09;;;;;;;9.40;4.90;;;;;;;-144.47;83.88;53217.59;5033713;28;20389;-89
2023/01/29 06:14:43;;;;;;;13.60;5.95;;;;;;;-144.47;83.69;53229.50;5034513;28;20030;-90
2023/01/29 06:17:11;;;;;;;11.30;5.40;;;;;;;-144.47;83.89;53225.53;5032151;28;20045;-90
2023/01/29 06:19:44;;;;;;;11.10;5.63;;;;;;;-144.47;83.64;53265.25;5033681;28;20033;-90
2023/01/29 06:22:15;;;;;;;16.75;5.97;;;;;;;-144.47;83.76;53211.63;5034141;28;20460;-90
2023/01/29 06:24:44;;;;;;;11.35;5.63;;;;;;;-144.47;83.33;53211.63;5033158;28;20030;-89
2023/01/29 06:27:12;;;;;;;12.32;4.40;;;;;;;-144.47;83.58;53219.56;5031987;28;20040;-91
2023/01/29 06:29:50;;;;;;;14.90;5.37;;;;;;;-144.47;83.42;53223.56;5034042;28;20446;-90
2023/01/29 06:32:24;;;;;;;17.15;6.05;;;;;;;-144.47;83.61;53247.38;5032170;28;20021;-90
2023/01/29 06:34:52;;;;;;;10.63;5.00;;;;;;;-144.47;83.25;53217.59;5035600;28;20445;-90
2023/01/29 06:37:33;;;;;;;;;;;;;;;;;;;;;
2023/01/29 06:40:11;;;;;;;10.90;5.13;;;;;;;-144.47;82.97;53231.50;5036529;28;20043;-91
2023/01/29 06:42:39;;;;;;;22.73;5.32;;;;;;;-144.47;82.80;53215.59;5039844;28;20136;-91
2023/01/29 06:45:14;;;;;;;14.32;5.95;;;;;;;-144.47;82.82;53237.44;5038323;28;20017;-91
2023/01/29 06:47:50;;;;;;;10.25;6.25;;;;;;;-144.47;82.67;53209.66;5038856;28;20045;-90
2023/01/29 06:50:25;;;;;;;14.80;6.45;;;;;;;-144.47;82.33;53235.47;5038152;28;20037;-91
2023/01/29 06:52:53;;;;;;;13.05;6.20;;;;;;;-144.47;82.56;53257.31;5036181;28;20080;-89
2023/01/29 06:55:21;;;;;;;13.48;6.13;;;;;;;-144.47;82.43;53227.53;5037477;28;20057;-90
2023/01/29 06:58:04;;;;;;;10.48;5.47;;;;;;;-144.47;82.34;53217.59;5038834;28;20047;-90
2023/01/29 07:00:34;;;;;;;15.70;6.28;;;;;;;-144.47;82.39;53227.53;5038696;28;20071;-90
2023/01/29 07:03:03;;;;;;;12.20;6.05;;;;;;;-144.47;82.32;53227.53;5035835;28;20030;-90
2023/01/29 07:05:33;;;;;;;13.23;5.72;;;;;;;-144.47;82.40;53229.50;5036506;28;20179;-91
2023/01/29 07:08:04;;;;;;;16.95;6.90;;;;;;;-144.47;82.54;53223.56;5037129;28;20091;-90
2023/01/29 07:11:21;;;;;;;21.33;7.28;;;;;;;-144.47;84.17;53201.69;5038721;28;20021;-91
2023/01/29 07:13:51;;;;;;;13.02;6.22;;;;;;;-144.47;82.67;53185.81;5037847;28;20101;-92
2023/01/29 07:16:23;;;;;;;14.07;6.43;;;;;;;-144.47;82.46;53201.69;5039749;28;20021;-91
2023/01/29 07:19:09;;;;;;;14.10;6.15;;;;;;;-144.47;81.90;53239.44;5038597;28;20021;-92
2023/01/29 07:24:18;;;;;;;11.50;6.03;;;;;;;-144.47;82.42;53211.63;5074471;22;20060;-93
2023/01/29 07:26:44;;;;;;;12.80;6.45;;;;;;;-144.47;82.28;53197.72;5035918;28;20029;-91
2023/01/29 07:29:10;;;;;;;15.77;6.68;;;;;;;-144.47;82.62;53227.53;5038267;28;20025;-89
2023/01/29 07:31:40;;;;;;;17.48;6.78;;;;;;;-144.47;82.40;53197.72;5037515;28;20378;-90
2023/01/29 07:34:13;;;;;;;14.73;6.32;;;;;;;-144.47;82.73;53189.78;5035461;28;20060;-90
2023/01/29 07:36:49;;;;;;;11.45;6.20;;;;;;;-144.47;82.57;53219.56;5036461;28;20083;-88
2023/01/29 07:39:21;;;;;;;18.00;7.25;;;;;;;-144.47;82.07;53177.88;5039980;28;20029;-89
2023/01/29 07:41:47;;;;;;;19.05;6.22;;;;;;;-144.47;82.26;53209.66;5035444;28;20492;-92
2023/01/29 07:44:12;;;;;;;17.42;6.97;;;;;;;-144.47;81.82;53191.78;5036362;28;20022;-91
2023/01/29 07:46:44;;;;;;;17.83;7.00;;;;;;;-144.47;81.90;53223.56;5035377;28;20021;-93
2023/01/29 07:49:21;;;;;;;15.55;6.13;;;;;;;-144.47;81.97;53223.56;5034883;28;20124;-92
2023/01/29 07:51:47;;;;;;;14.57;7.28;;;;;;;-144.47;82.05;53221.56;5035272;28;20021;-91
2023/01/29 07:54:20;;;;;;;13.45;7.05;;;;;;;-144.47;81.86;53221.56;5036560;28;20021;-91
2023/01/29 07:56:49;;;;;;;18.75;7.07;;;;;;;-144.47;81.37;53197.72;5035989;28;20017;-90
2023/01/29 07:59:17;;;;;;;20.33;6.68;;;;;;;-144.47;81.06;53189.78;5035041;28;20428;-90
2023/01/29 08:01:45;;;;;;;16.17;7.68;;;;;;;-144.47;81.06;53193.75;5035036;28;20025;-91
2023/01/29 08:04:13;;;;;;;14.07;7.32;;;;;;;-144.47;81.01;53225.53;5038931;28;20025;-92
2023/01/29 08:06:41;;;;;;;12.48;6.65;;;;;;;-144.47;81.47;53193.75;5036103;28;20111;-91
2023/01/29 08:09:15;;;;;;;13.30;6.72;;;;;;;-144.47;81.17;53217.59;5038158;28;20036;-91
2023/01/29 08:11:42;;;;;;;17.00;7.00;;;;;;;-144.47;80.95;53197.72;5035420;28;20029;-89
2023/01/29 08:14:20;;;;;;;14.88;6.82;;;;;;;-144.47;81.03;53205.66;5038032;28;20029;-89
2023/01/29 08:16:49;;;;;;;16.83;6.90;;;;;;;-144.47;81.19;53179.84;5040060;28;20124;-90
2023/01/29 08:19:22;;;;;;;12.93;6.68;;;;;;;-144.47;80.53;53193.75;5037153;28;20061;-91
2023/01/29 08:21:48;;;;;;;13.93;6.13;;;;;;;-144.47;80.09;53177.88;5036291;28;20052;-90
2023/01/29 08:24:39;;;;;;;14.02;6.15;;;;;;;-144.47;80.53;53201.69;5039355;28;20481;-91
2023/01/29 08:27:45;;;;;;;13.57;6.50;;;;;;;-144.47;80.16;53197.72;5036660;28;20104;-91
2023/01/29 08:30:39;;;;;;;16.95;6.97;;;;;;;-144.47;80.03;53189.78;5035855;28;20025;-91
2023/01/29 08:33:26;;;;;;;15.13;6.57;;;;;;;-144.47;80.24;53203.69;5035920;28;20025;-91
2023/01/29 08:36:01;;;;;;;15.73;6.38;;;;;;;-144.47;80.46;53209.66;5029582;28;20030;-93
2023/01/29 08:39:15;;;;;;;14.77;7.10;;;;;;;-144.47;80.13;53193.75;5026562;28;20025;-91
2023/01/29 08:51:53;;;;;;;12.90;6.50;;;;;;;-144.47;80.15;53197.72;5037262;22;20422;-69
2023/01/29 08:54:18;;;;;;;;;;;;;;;-144.47;80.22;53181.84;5028143;28;20033;-67
2023/01/29 08:56:44;;;;;;;12.55;7.05;;;;;;;-144.47;80.43;53193.75;5027596;28;19909;-69
2023/01/29 08:59:10;;;;;;;16.35;7.22;;;;;;;-144.47;81.33;53175.88;5027824;28;20040;-68
2023/01/29 09:01:35;;;;;;;15.43;7.85;;;;;;;-144.47;80.93;53203.69;5025877;28;20486;-68
2023/01/29 09:04:00;;;;;;;16.50;7.97;;;;;;;-144.47;81.12;53187.78;5025963;28;20617;-69
2023/01/29 09:06:26;;;;;;;15.60;7.72;;;;;;;-144.47;81.25;53201.69;5018342;22;20042;-64
2023/01/29 09:08:52;;;;;;;15.40;7.47;;;;;;;-144.47;81.20;53191.78;4992811;28;20077;-71
2023/01/29 09:11:18;;;;;;;15.98;7.68;;;;;;;-144.47;81.38;53197.72;4986375;28;20050;-68
2023/01/29 09:13:43;;;;;;;36.25;8.80;;;;;;;-144.47;81.45;53175.88;4984036;28;20038;-66
2023/01/29 09:16:09;;;;;;;18.45;7.85;;;;;;;-144.47;81.46;53191.78;4985756;28;20108;-71
2023/01/29 09:18:35;;;;;;;17.15;7.50;;;;;;;-144.47;81.79;53169.91;4989936;28;20177;-68
2023/01/29 09:21:01;;;;;;;17.20;7.35;;;;;;;-144.47;81.77;53193.75;4987148;28;20058;-69
2023/01/29 09:23:28;;;;;;;17.80;7.82;;;;;;;-144.47;81.61;53199.72;4989058;28;20057;-66
2023/01/29 09:25:53;;;;;;;19.48;7.55;;;;;;;-144.47;81.54;53195.75;4984486;28;20543;-68
2023/01/29 09:28:18;;;;;;;15.55;6.82;;;;;;;-144.47;81.76;53142.09;4989690;28;20068;-70
2023/01/29 09:30:44;;;;;;;17.25;8.18;;;;;;;-144.47;81.16;53163.97;4994446;28;20022;-70
2023/01/29 09:33:10;;;;;;;17.35;7.60;;;;;;;-144.47;81.35;53185.81;4993374;28;20109;-70
2023/01/29 09:35:35;;;;;;;16.70;8.02;;;;;;;-144.47;80.83;53185.81;4983918;28;20042;-70
2023/01/29 09:38:00;;;;;;;13.30;6.65;;;;;;;-144.47;80.89;53195.75;4988352;28;20065;-69
2023/01/29 09:40:31;;;;;;;17.25;9.68;;;;;;;-144.47;80.30;53161.97;4990464;28;20033;-70
2023/01/29 09:43:03;;;;;;;19.63;8.63;;;;;;;-144.47;80.69;53160.00;4990693;28;20031;-72
2023/01/29 09:45:29;;;;;;;17.08;7.95;;;;;;;-144.47;80.34;53167.94;4986003;28;20096;-69
2023/01/29 09:48:04;;;;;;;24.08;7.75;;;;;;;-144.47;80.21;53160.00;4980191;28;20054;-65
2023/01/29 09:50:50;;;;;;;13.10;6.40;;;;;;;-144.47;79.54;53169.91;4981671;28;20037;-67
2023/01/29 09:53:31;;;;;;;15.75;7.03;;;;;;;-144.47;80.02;53191.78;4990091;28;20033;-68
2023/01/29 09:56:02;;;;;;;14.85;6.57;;;;;;;-144.47;79.78;53209.66;5001185;28;20156;-70
2023/01/29 09:58:32;;;;;;;17.65;8.02;;;;;;;-144.47;79.38;53140.13;4990965;28;20026;-67
2023/01/29 10:01:21;;;;;;;18.73;8.23;;;;;;;-144.47;79.45;53152.03;4993487;28;20117;-65
2023/01/29 10:04:11;;;;;;;18.10;7.82;;;;;;;-144.47;79.59;53175.88;4984810;28;20467;-65
2023/01/29 10:06:58;;;;;;;21.55;7.88;;;;;;;-144.47;79.98;53154.03;4988410;28;20030;-67
2023/01/29 10:09:38;;;;;;;17.38;7.80;;;;;;;-144.47;79.44;53203.69;4992682;28;20384;-66
2023/01/29 10:12:20;;;;;;;17.98;8.13;;;;;;;-144.47;79.75;53161.97;4992239;28;20033;-67
2023/01/29 10:15:10;;;;;;;13.48;6.95;;;;;;;-144.47;78.89;53185.81;4985362;28;20425;-67
2023/01/29 10:17:55;;;;;;;14.30;6.93;;;;;;;-144.47;78.77;53191.78;4990545;28;20026;-67
2023/01/29 10:20:23;;;;;;;15.90;7.30;;;;;;;-144.47;78.88;53138.13;4988696;28;20027;-69
2023/01/29 10:23:24;;;;;;;14.25;7.93;;;;;;;-144.47;78.29;53173.88;4990870;28;20040;-67
2023/01/29 10:25:52;;;;;;;21.48;9.02;;;;;;;-144.47;78.58;53160.00;4993731;28;20029;-68
2023/01/29 10:28:29;;;;;;;13.18;7.97;;;;;;;-144.47;78.19;53163.97;4991029;28;20045;-68
2023/01/29 10:30:59;;;;;;;18.45;8.32;;;;;;;-144.47;77.83;53158.00;4988502;28;20037;-68
2023/01/29 10:33:38;;;;;;;18.38;8.00;;;;;;;-144.47;78.01;53142.09;4990918;28;20042;-67
2023/01/29 10:36:10;;;;;;;17.00;9.10;;;;;;;-144.47;77.84;53146.09;4992433;28;20089;-68
2023/01/29 10:38:52;;;;;;;17.73;8.07;;;;;;;-144.47;77.93;53150.06;4991729;28;20072;-67
2023/01/29 10:41:42;;;;;;;21.02;8.35;;;;;;;-144.47;78.35;53173.88;4989831;28;20508;-67
2023/01/29 10:44:26;;;;;;;18.70;7.78;;;;;;;-144.47;77.87;53181.84;4986738;28;20098;-66
2023/01/29 10:46:57;;;;;;;17.88;8.15;;;;;;;-144.47;77.67;53165.94;4985250;28;20057;-68
2023/01/29 10:50:01;;;;;;;19.85;9.45;;;;;;;-144.47;77.19;53144.09;4990290;28;20100;-67
2023/01/29 10:53:00;;;;;;;17.38;7.60;;;;;;;-144.47;77.34;53138.13;4958500;28;20834;-67
2023/01/29 10:55:57;;;;;;;17.60;8.45;;;;;;;-144.47;77.35;53136.16;4989011;28;20157;-66
2023/01/29 10:58:32;;;;;;;20.10;9.18;;;;;;;-144.47;77.09;53126.22;4987784;28;20100;-64
2023/01/29 11:00:58;;;;;;;15.65;7.78;;;;;;;-144.47;77.38;53124.22;4987946;28;20148;-66
2023/01/29 11:03:26;;;;;;;20.20;9.48;;;;;;;-144.47;77.18;53140.13;4986112;28;20034;-65
2023/01/29 11:06:00;;;;;;;17.65;8.35;;;;;;;-144.47;76.70;53181.84;4990410;28;20523;-68
2023/01/29 11:08:33;;;;;;;17.60;8.40;;;;;;;-144.47;77.05;53136.16;4990732;28;20419;-66
2023/01/29 11:11:11;;;;;;;20.02;8.32;;;;;;;-144.47;76.75;53134.16;4992030;28;20543;-66
2023/01/29 11:13:57;;;;;;;16.52;7.28;;;;;;;-144.47;76.95;53126.22;4991227;28;20065;-69
2023/01/29 11:16:23;;;;;;;15.88;8.25;;;;;;;-144.47;76.35;53158.00;4987712;28;20582;-68
2023/01/29 11:19:00;;;;;;;15.70;8.15;;;;;;;-144.47;76.18;53167.94;4991436;28;20033;-69
2023/01/29 11:21:27;;;;;;;19.17;8.13;;;;;;;-144.47;76.15;53142.09;4992305;28;20444;-67
2023/01/29 11:24:29;;;;;;;14.68;7.53;;;;;;;-144.47;75.78;53122.25;4990402;28;20030;-66
2023/01/29 11:26:58;;;;;;;18.48;8.35;;;;;;;-144.47;75.31;53126.22;4948078;28;20041;-67
2023/01/29 11:29:26;;;;;;;17.52;8.77;;;;;;;-144.47;74.70;53120.25;4980542;28;20135;-68
2023/01/29 11:31:52;;;;;;;22.40;9.93;;;;;;;-144.47;74.64;53140.13;4993927;28;20034;-69
2023/01/29 11:34:20;;;;;;;20.67;8.82;;;;;;;-144.47;74.79;53160.00;4994320;28;20309;-69
2023/01/29 11:36:45;;;;;;;23.40;8.25;;;;;;;-144.47;74.33;53130.19;4991613;28;20029;-67
2023/01/29 11:39:16;;;;;;;13.95;7.68;;;;;;;-144.47;74.91;53118.28;4991699;28;20053;-70
2023/01/29 11:41:43;;;;;;;17.67;8.73;;;;;;;-144.47;75.22;53152.03;4991025;28;20041;-68
2023/01/29 11:44:17;;;;;;;18.63;8.50;;;;;;;-144.47;75.13;53144.09;4991039;28;20034;-69
2023/01/29 11:46:43;;;;;;;25.42;7.90;;;;;;;-144.47;74.77;53156.00;4992435;28;20034;-69
2023/01/29 11:49:27;;;;;;;21.80;8.30;;;;;;;-144.47;75.33;53116.28;4991244;28;20057;-70
2023/01/29 11:51:55;;;;;;;15.02;7.88;;;;;;;-144.47;74.33;53122.25;4983833;28;20141;-65
2023/01/29 11:54:27;;;;;;;17.33;7.93;;;;;;;-144.47;73.32;53148.06;4985445;28;20080;-67
2023/01/29 11:56:53;;;;;;;21.05;8.77;;;;;;;-144.47;73.28;53140.13;4989130;28;20032;-65
2023/01/29 11:59:43;;;;;;;15.27;8.02;;;;;;;-144.47;73.46;53136.16;4989231;28;20058;-68
2023/01/29 12:02:34;;;;;;;17.42;7.55;;;;;;;-144.47;73.84;53118.28;4989380;28;20049;-65
2023/01/29 12:05:14;;;;;;;14.32;7.63;;;;;;;-144.47;73.47;53118.28;4989530;28;20437;-64
2023/01/29 12:07:42;;;;;;;18.92;8.13;;;;;;;-144.47;72.77;53102.38;4990360;28;20037;-68
2023/01/29 12:10:35;;;;;;;17.05;7.72;;;;;;;-144.47;72.63;53116.28;4990234;28;20046;-68
2023/01/29 12:13:22;;;;;;;17.08;7.60;;;;;;;-144.47;72.41;53104.38;4989432;28;20033;-68
2023/01/29 12:15:48;;;;;;;20.55;8.07;;;;;;;-144.47;72.92;53104.38;4991517;28;20038;-67